createdAt,value
2019-04-26T00:00:18.074Z,12.80
2019-04-26T00:04:26.851Z,12.87
2019-04-26T00:08:33.664Z,12.77
2019-04-26T00:12:51.098Z,12.73
2019-04-26T00:17:01.799Z,12.74
2019-04-26T00:21:09.813Z,12.50
2019-04-26T00:25:18.623Z,12.44
2019-04-26T00:29:25.400Z,12.42
2019-04-26T00:33:32.248Z,12.54
2019-04-26T00:37:38.946Z,12.62
2019-04-26T00:41:46.149Z,12.36
2019-04-26T00:45:56.375Z,12.13
2019-04-26T00:50:04.225Z,12.03
2019-04-26T00:54:11.691Z,12.21
2019-04-26T00:58:18.797Z,12.25
2019-04-26T01:02:39.698Z,12.11
2019-04-26T01:06:48.038Z,12.21
2019-04-26T01:10:54.742Z,12.12
2019-04-26T01:15:01.446Z,12.09
2019-04-26T01:19:12.258Z,12.00
2019-04-26T01:23:22.998Z,11.93
2019-04-26T01:27:32.388Z,11.92
2019-04-26T01:32:07.989Z,11.80
2019-04-26T01:36:16.720Z,11.60
2019-04-26T01:40:26.066Z,11.71
2019-04-26T01:44:48.254Z,11.70
2019-04-26T01:49:02.779Z,11.63
2019-04-26T01:53:09.627Z,11.67
2019-04-26T01:57:17.002Z,11.45
2019-04-26T02:01:51.400Z,11.54
2019-04-26T02:05:58.317Z,11.52
2019-04-26T02:10:06.207Z,11.61
2019-04-26T02:14:13.131Z,11.46
2019-04-26T02:18:19.936Z,11.61
2019-04-26T02:22:36.321Z,11.50
2019-04-26T02:26:45.516Z,11.45
2019-04-26T02:30:52.878Z,11.40
2019-04-26T02:35:00.061Z,11.49
2019-04-26T02:39:24.255Z,11.48
2019-04-26T02:43:32.090Z,11.53
2019-04-26T02:47:47.261Z,11.64
2019-04-26T02:52:33.329Z,11.53
2019-04-26T02:56:43.304Z,11.54
2019-04-26T03:00:51.362Z,11.61
2019-04-26T03:05:07.531Z,11.82
2019-04-26T03:09:17.294Z,11.85
2019-04-26T03:13:47.905Z,11.75
2019-04-26T03:18:19.299Z,11.74
2019-04-26T03:23:07.949Z,11.86
2019-04-26T03:27:43.433Z,11.82
2019-04-26T03:32:36.254Z,11.84
2019-04-26T03:37:22.959Z,11.56
2019-04-26T03:42:30.769Z,11.51
2019-04-26T03:46:57.033Z,11.76
2019-04-26T03:51:17.746Z,11.81
2019-04-26T03:57:03.151Z,11.69
2019-04-26T04:01:12.287Z,11.68
2019-04-26T04:05:37.273Z,11.62
2019-04-26T04:09:49.511Z,11.84
2019-04-26T04:14:05.056Z,11.65
2019-04-26T04:18:20.879Z,11.71
2019-04-26T04:22:32.623Z,11.79
2019-04-26T04:27:11.586Z,11.56
2019-04-26T04:31:29.457Z,11.78
2019-04-26T04:35:45.664Z,11.80
2019-04-26T04:40:37.155Z,11.81
2019-04-26T04:45:58.211Z,11.72
2019-04-26T04:50:44.936Z,11.93
2019-04-26T04:55:07.735Z,11.98
2019-04-26T04:59:24.060Z,11.89
2019-04-26T05:03:53.191Z,11.97
2019-04-26T05:08:25.197Z,11.84
2019-04-26T05:13:03.452Z,11.98
2019-04-26T05:17:41.787Z,11.78
2019-04-26T05:22:37.472Z,11.96
2019-04-26T05:28:15.527Z,11.94
2019-04-26T05:33:07.087Z,11.93
2019-04-26T05:38:17.942Z,11.89
2019-04-26T05:43:03.344Z,11.76
2019-04-26T05:48:11.562Z,11.72
2019-04-26T05:53:23.629Z,11.70
2019-04-26T05:58:05.517Z,11.77
2019-04-26T06:02:56.806Z,11.85
2019-04-26T06:07:37.142Z,11.77
2019-04-26T06:12:01.963Z,11.76
2019-04-26T06:17:33.660Z,11.72
2019-04-26T06:22:16.196Z,11.68
2019-04-26T06:27:13.616Z,11.81
2019-04-26T06:31:22.963Z,11.60
2019-04-26T06:35:34.800Z,11.59
2019-04-26T06:40:02.208Z,11.45
2019-04-26T06:44:17.075Z,11.47
2019-04-26T06:49:49.603Z,11.43
2019-04-26T06:54:19.771Z,11.72
2019-04-26T06:59:35.705Z,11.47
2019-04-26T07:04:21.539Z,11.42
2019-04-26T07:08:57.687Z,11.60
2019-04-26T07:13:48.445Z,11.26
2019-04-26T07:19:06.581Z,11.27
2019-04-26T07:24:29.770Z,11.56
2019-04-26T07:29:29.480Z,10.90
2019-04-26T07:34:09.539Z,10.82
2019-04-26T07:39:20.323Z,11.18
2019-04-26T07:44:23.090Z,10.97
2019-04-26T07:49:13.213Z,10.91
2019-04-26T07:54:05.099Z,10.85
2019-04-26T07:59:18.403Z,10.97
2019-04-26T08:03:38.464Z,10.95
2019-04-26T08:07:52.818Z,10.85
2019-04-26T08:12:07.959Z,11.04
2019-04-26T08:16:48.556Z,11.21
2019-04-26T08:21:09.941Z,11.32
2019-04-26T08:25:17.687Z,11.29
2019-04-26T08:29:29.845Z,11.34
2019-04-26T08:33:48.558Z,11.33
2019-04-26T08:37:57.454Z,11.25
2019-04-26T08:42:12.120Z,11.39
2019-04-26T08:46:38.566Z,11.29
2019-04-26T08:50:48.300Z,11.51
2019-04-26T08:54:58.205Z,11.55
2019-04-26T08:59:17.805Z,11.45
2019-04-26T09:03:56.008Z,11.57
2019-04-26T09:08:06.515Z,11.51
2019-04-26T09:12:23.168Z,11.16
2019-04-26T09:16:27.428Z,11.55
2019-04-26T09:20:34.179Z,11.58
2019-04-26T09:24:55.110Z,11.53
2019-04-26T09:29:07.593Z,11.54
2019-04-26T09:33:18.260Z,12.04
2019-04-26T09:37:25.601Z,11.89
2019-04-26T09:41:32.341Z,11.69
2019-04-26T09:46:04.253Z,11.87
2019-04-26T09:50:28.441Z,11.79
2019-04-26T09:54:35.199Z,12.08
2019-04-26T09:58:41.885Z,11.97
2019-04-26T10:02:48.754Z,12.03
2019-04-26T10:06:55.652Z,12.08
2019-04-26T10:11:05.774Z,11.91
2019-04-26T10:15:22.481Z,11.96
2019-04-26T10:19:33.997Z,11.91
2019-04-26T10:23:40.938Z,11.91
2019-04-26T10:27:47.977Z,12.01
2019-04-26T10:31:54.813Z,11.97
2019-04-26T10:36:01.484Z,11.81
2019-04-26T10:40:08.670Z,12.09
2019-04-26T10:44:15.664Z,11.97
2019-04-26T10:48:23.297Z,11.66
2019-04-26T10:52:58.097Z,11.67
2019-04-26T10:57:11.687Z,11.89
2019-04-26T11:01:19.463Z,11.62
2019-04-26T11:05:26.195Z,11.71
2019-04-26T11:09:32.945Z,11.54
2019-04-26T11:13:39.663Z,11.80
2019-04-26T11:17:50.024Z,11.98
2019-04-26T11:21:56.089Z,11.95
2019-04-26T11:26:02.977Z,12.07
2019-04-26T11:30:14.323Z,12.19
2019-04-26T11:38:31.172Z,12.29
2019-04-26T11:40:14.006Z,12.35
2019-04-26T11:42:36.166Z,12.11
2019-04-26T11:46:44.926Z,12.17
2019-04-26T11:50:52.000Z,12.09
2019-04-26T11:54:59.662Z,12.17
2019-04-26T11:59:06.431Z,12.43
2019-04-26T12:03:13.197Z,12.26
2019-04-26T12:07:23.517Z,12.55
2019-04-26T12:11:35.007Z,12.61
2019-04-26T12:15:39.016Z,12.62
2019-04-26T12:19:48.143Z,12.50
2019-04-26T12:23:56.411Z,12.62
2019-04-26T12:28:06.103Z,12.50
2019-04-26T12:32:11.831Z,12.54
2019-04-26T12:36:19.372Z,12.23
2019-04-26T12:40:26.123Z,12.40
2019-04-26T12:44:41.224Z,12.39
2019-04-26T12:48:49.992Z,12.27
2019-04-26T12:52:57.373Z,12.51
2019-04-26T12:57:05.815Z,12.37
2019-04-26T13:01:14.358Z,12.32
2019-04-26T13:05:21.348Z,12.21
2019-04-26T13:09:28.432Z,12.26
2019-04-26T13:13:42.283Z,12.15
2019-04-26T13:17:56.910Z,12.09
2019-04-26T13:22:03.694Z,12.06
2019-04-26T13:26:10.428Z,12.28
2019-04-26T13:30:17.184Z,12.25
2019-04-26T13:34:23.874Z,12.25
2019-04-26T13:38:30.653Z,12.18
2019-04-26T13:42:37.438Z,12.20
2019-04-26T13:47:08.112Z,12.00
2019-04-26T13:51:15.606Z,12.28
2019-04-26T13:55:25.402Z,12.33
2019-04-26T13:59:31.694Z,12.65
2019-04-26T14:03:39.371Z,12.75
2019-04-26T14:07:46.095Z,12.79
2019-04-26T14:11:53.805Z,12.69
2019-04-26T14:16:00.686Z,13.01
2019-04-26T14:20:07.644Z,13.25
2019-04-26T14:24:25.199Z,13.16
2019-04-26T14:28:31.890Z,13.32
2019-04-26T14:32:38.586Z,13.09
2019-04-26T14:36:45.244Z,13.36
2019-04-26T14:41:03.687Z,13.35
2019-04-26T14:45:06.118Z,13.67
2019-04-26T14:49:10.875Z,13.16
2019-04-26T14:53:17.609Z,13.36
2019-04-26T14:57:31.309Z,13.19
2019-04-26T15:02:06.359Z,13.35
2019-04-26T15:06:16.857Z,13.40
2019-04-26T15:10:43.153Z,13.50
2019-04-26T15:14:38.802Z,13.35
2019-04-26T15:18:45.647Z,13.21
2019-04-26T15:22:52.918Z,13.25
2019-04-26T15:27:01.811Z,13.13
2019-04-26T15:31:08.208Z,13.31
2019-04-26T15:35:17.657Z,13.14
2019-04-26T15:39:39.576Z,13.14
2019-04-26T15:43:59.455Z,13.21
2019-04-26T15:48:37.159Z,13.02
2019-04-26T15:52:43.973Z,13.11
2019-04-26T15:56:53.800Z,13.07
2019-04-26T16:00:59.382Z,13.14
2019-04-26T16:05:06.321Z,13.09
2019-04-26T16:09:19.883Z,13.00
2019-04-26T16:13:24.180Z,12.98
2019-04-26T16:17:31.024Z,12.93
2019-04-26T16:21:37.732Z,13.08
2019-04-26T16:25:44.456Z,13.10
2019-04-26T16:29:59.633Z,13.07
2019-04-26T16:34:10.834Z,13.32
2019-04-26T16:38:36.137Z,13.32
2019-04-26T16:42:42.816Z,13.37
2019-04-26T16:46:54.031Z,13.37
2019-04-26T16:51:00.944Z,13.29
2019-04-26T16:55:15.293Z,13.31
2019-04-26T16:59:22.378Z,13.51
2019-04-26T17:03:26.259Z,13.46
2019-04-26T17:07:39.034Z,13.47
2019-04-26T17:11:43.377Z,13.54
2019-04-26T17:15:51.976Z,13.50
2019-04-26T17:19:59.264Z,13.52
2019-04-26T17:24:43.813Z,13.54
2019-04-26T17:28:48.554Z,13.56
2019-04-26T17:32:56.344Z,13.48
2019-04-26T17:37:11.703Z,13.46
2019-04-26T17:41:13.840Z,13.41
2019-04-26T17:45:21.281Z,13.29
2019-04-26T17:49:28.976Z,13.31
2019-04-26T17:53:36.908Z,13.34
2019-04-26T17:57:48.525Z,13.15
2019-04-26T18:02:00.557Z,13.29
2019-04-26T18:06:01.051Z,13.19
2019-04-26T18:10:10.390Z,13.15
2019-04-26T18:14:21.532Z,13.04
2019-04-26T18:18:46.241Z,12.88
2019-04-26T18:22:57.250Z,13.03
2019-04-26T18:27:04.379Z,12.84
2019-04-26T18:31:16.429Z,12.79
2019-04-26T18:35:23.411Z,12.80
2019-04-26T18:39:30.396Z,12.70
2019-04-26T18:43:37.115Z,12.68
2019-04-26T18:47:45.328Z,12.70
2019-04-26T18:51:54.663Z,12.57
2019-04-26T18:56:03.385Z,12.62
2019-04-26T19:00:15.453Z,12.49
2019-04-26T19:04:23.603Z,12.49
2019-04-26T19:08:43.639Z,12.35
2019-04-26T19:12:41.196Z,12.33
2019-04-26T19:17:07.716Z,12.40
2019-04-26T19:21:21.902Z,12.20
2019-04-26T19:25:33.290Z,12.14
2019-04-26T19:29:38.459Z,12.16
2019-04-26T19:33:47.678Z,12.12
2019-04-26T19:37:53.621Z,11.94
2019-04-26T19:42:02.368Z,11.80
2019-04-26T19:46:25.210Z,11.95
2019-04-26T19:50:53.642Z,11.93
2019-04-26T19:55:20.078Z,11.82
2019-04-26T19:59:27.505Z,11.59
2019-04-26T20:03:35.409Z,11.76
2019-04-26T20:07:42.128Z,11.88
2019-04-26T20:11:52.929Z,11.70
2019-04-26T20:16:02.726Z,11.56
2019-04-26T20:20:19.366Z,11.60
2019-04-26T20:24:19.722Z,11.57
2019-04-26T20:28:29.686Z,11.64
2019-04-26T20:32:37.403Z,11.51
2019-04-26T20:36:52.569Z,11.48
2019-04-26T20:42:05.077Z,11.55
2019-04-26T20:46:16.051Z,11.57
2019-04-26T20:50:28.501Z,11.50
2019-04-26T20:54:34.118Z,11.54
2019-04-26T20:58:47.091Z,11.48
2019-04-26T21:03:01.513Z,11.54
2019-04-26T21:07:06.756Z,11.52
2019-04-26T21:11:13.712Z,11.49
2019-04-26T21:15:24.017Z,11.64
2019-04-26T21:19:32.746Z,11.54
2019-04-26T21:23:39.956Z,11.56
2019-04-26T21:35:20.375Z,11.71
2019-04-26T21:39:44.161Z,11.61
2019-04-26T21:43:50.903Z,11.62
2019-04-26T21:47:57.755Z,11.51
2019-04-26T21:52:06.455Z,11.48
2019-04-26T21:56:18.768Z,11.60
2019-04-26T22:00:49.714Z,11.42
2019-04-26T22:04:58.139Z,11.54
2019-04-26T22:09:21.126Z,11.55
2019-04-26T22:13:37.236Z,11.49
2019-04-26T22:17:48.114Z,11.45
2019-04-26T22:22:04.269Z,11.38
2019-04-26T22:26:13.316Z,11.47
2019-04-26T22:30:28.502Z,11.40
2019-04-26T22:34:37.284Z,11.43
2019-04-26T22:38:44.423Z,11.45
2019-04-26T22:42:54.668Z,11.46
2019-04-26T22:47:14.035Z,11.38
2019-04-26T22:51:20.979Z,11.44
2019-04-26T22:55:27.771Z,11.43
2019-04-26T22:59:38.093Z,11.49
2019-04-26T23:03:46.312Z,11.52
2019-04-26T23:07:54.685Z,11.46
2019-04-26T23:12:11.698Z,11.45
2019-04-26T23:16:27.337Z,11.51
2019-04-26T23:20:43.083Z,11.39
2019-04-26T23:24:56.656Z,11.48
2019-04-26T23:29:01.194Z,11.38
2019-04-26T23:33:07.929Z,11.41
2019-04-26T23:37:14.632Z,11.42
2019-04-26T23:41:23.440Z,11.38
2019-04-26T23:45:29.980Z,11.24
2019-04-26T23:49:36.715Z,11.29
2019-04-26T23:53:43.371Z,11.13
2019-04-26T23:57:50.149Z,11.15
